CCD2 weather

Springdale Airport
Springdale, Newfoundland and Labrador, Canada

Public forecast

Using degrees Celsius for public forecast. Weather courtesy of forecast.io.

METAR (pilot weather report)

Closest report is Deer Lake Airport, 50.1 nm (92.8 km) WSW. Retrieved 2019/07/23 00:00 UTC (28 minutes ago):

CYDF 230000Z 24007KT 15SM FEW025 BKN210 16/13 A2979 RMK SC1CI4 SLP088 DENSITY ALT 300FT

TAF (pilot weather forecast)

Closest forecast is Deer Lake Airport, 50.1 nm (92.8 km) WSW. Retrieved 2019/07/22 20:42 UTC (4 hours ago):

TAF CYDF 221938Z 2220/2308 28010G20KT P6SM FEW030 FM230300 24006KT P6SM SCT006 TEMPO 2303/2308 2SM BR BKN006 RMK NXT FCST BY 230200Z